createdAt,value
2023-04-18T00:00:28.708Z,8.90
2023-04-18T00:05:30.580Z,9.30
2023-04-18T00:10:33.199Z,17.30
2023-04-18T00:15:35.546Z,11.40
2023-04-18T00:20:39.015Z,18.50
2023-04-18T00:25:41.142Z,10.80
2023-04-18T00:30:42.658Z,13.50
2023-04-18T00:35:44.325Z,12.20
2023-04-18T00:40:45.864Z,14.40
2023-04-18T00:45:47.435Z,12.40
2023-04-18T00:50:49.031Z,10.30
2023-04-18T00:55:50.552Z,18.80
2023-04-18T01:00:52.357Z,17.80
2023-04-18T01:05:55.613Z,16.10
2023-04-18T01:10:57.120Z,18.30
2023-04-18T01:15:59.062Z,16.70
2023-04-18T01:21:00.925Z,12.50
2023-04-18T01:26:02.384Z,16.70
2023-04-18T01:31:03.933Z,16.20
2023-04-18T01:36:05.730Z,14.10
2023-04-18T01:41:07.248Z,12.00
2023-04-18T01:46:08.872Z,14.00
2023-04-18T01:51:10.439Z,14.90
2023-04-18T01:56:11.962Z,15.10
2023-04-18T02:01:13.736Z,13.90
2023-04-18T02:06:15.238Z,14.10
2023-04-18T02:11:16.746Z,11.30
2023-04-18T02:16:18.224Z,19.40
2023-04-18T02:21:19.770Z,16.40
2023-04-18T02:26:21.282Z,20.50
2023-04-18T02:31:22.822Z,14.60
2023-04-18T02:36:28.149Z,10.90
2023-04-18T02:41:29.632Z,15.00
2023-04-18T02:46:31.245Z,17.10
2023-04-18T02:51:32.924Z,14.90
2023-04-18T02:56:39.902Z,13.00
2023-04-18T03:01:41.613Z,12.50
2023-04-18T03:06:43.264Z,11.30
2023-04-18T03:11:44.900Z,16.40
2023-04-18T03:16:46.509Z,15.40
2023-04-18T03:21:48.044Z,22.60
2023-04-18T03:26:49.543Z,22.40
2023-04-18T03:31:51.050Z,14.90
2023-04-18T03:36:52.544Z,17.60
2023-04-18T03:41:54.247Z,14.50
2023-04-18T03:46:56.057Z,18.40
2023-04-18T03:51:57.550Z,20.60
2023-04-18T03:56:59.681Z,13.50
2023-04-18T04:02:01.310Z,14.50
2023-04-18T04:07:03.250Z,18.60
2023-04-18T04:12:05.560Z,14.50
2023-04-18T04:17:07.366Z,21.90
2023-04-18T04:22:09.172Z,22.10
2023-04-18T04:27:12.620Z,14.10
2023-04-18T04:37:18.807Z,13.00
2023-04-18T04:42:20.312Z,11.40
2023-04-18T04:47:21.900Z,19.50
2023-04-18T04:52:23.545Z,10.60
2023-04-18T04:57:25.092Z,20.60
2023-04-18T05:02:26.682Z,17.70
2023-04-18T05:07:28.465Z,14.30
2023-04-18T05:12:29.955Z,14.10
2023-04-18T05:17:31.467Z,15.20
2023-04-18T05:22:33.007Z,14.20
2023-04-18T05:27:34.544Z,15.00
2023-04-18T05:32:36.045Z,15.60
2023-04-18T05:37:37.652Z,16.90
2023-04-18T05:42:43.558Z,15.20
2023-04-18T05:47:45.121Z,18.10
2023-04-18T05:52:46.688Z,13.90
2023-04-18T05:57:48.161Z,15.60
2023-04-18T06:02:50.850Z,16.50
2023-04-18T06:07:52.612Z,17.30
2023-04-18T06:12:54.098Z,13.20
2023-04-18T06:17:55.625Z,14.70
2023-04-18T06:22:57.177Z,16.00
2023-04-18T06:27:58.664Z,18.30
2023-04-18T06:33:00.442Z,15.40
2023-04-18T06:38:02.430Z,16.50
2023-04-18T06:43:04.122Z,11.10
2023-04-18T06:48:06.374Z,15.50
2023-04-18T06:53:07.920Z,11.40
2023-04-18T06:58:10.232Z,14.70
2023-04-18T07:03:13.697Z,16.60
2023-04-18T07:08:15.667Z,12.10
2023-04-18T07:13:17.222Z,20.90
2023-04-18T07:18:30.199Z,11.80
2023-04-18T07:23:36.631Z,14.70
2023-04-18T07:28:38.131Z,18.10
2023-04-18T07:33:39.712Z,12.10
2023-04-18T07:38:41.572Z,18.80
2023-04-18T07:43:44.964Z,19.30
2023-04-18T07:48:46.544Z,17.00
2023-04-18T07:53:48.072Z,20.90
2023-04-18T07:58:49.560Z,17.30
2023-04-18T08:03:53.291Z,16.10
2023-04-18T08:08:55.032Z,19.20
2023-04-18T08:13:56.492Z,22.40
2023-04-18T08:18:57.976Z,17.20
2023-04-18T08:23:59.641Z,15.30
2023-04-18T08:29:01.173Z,19.70
2023-04-18T08:34:04.985Z,20.30
2023-04-18T08:39:07.881Z,18.00
2023-04-18T08:44:09.487Z,21.40
2023-04-18T08:49:12.025Z,18.40
2023-04-18T08:54:15.178Z,14.70
2023-04-18T08:59:18.436Z,18.90
2023-04-18T09:04:44.885Z,16.40
2023-04-18T09:09:51.932Z,14.90
2023-04-18T09:14:57.899Z,17.40
2023-04-18T09:20:01.144Z,19.10
2023-04-18T09:30:05.590Z,17.00
2023-04-18T09:35:08.292Z,17.80
2023-04-18T09:40:19.623Z,12.50
2023-04-18T09:45:22.554Z,15.00
2023-04-18T09:50:24.162Z,15.40
2023-04-18T09:55:26.116Z,12.30
2023-04-18T10:00:32.112Z,16.20
2023-04-18T10:05:36.416Z,9.90
2023-04-18T10:10:39.062Z,16.70
2023-04-18T10:15:43.623Z,8.90
2023-04-18T10:20:47.036Z,13.30
2023-04-18T10:25:49.642Z,16.60
2023-04-18T10:30:53.376Z,8.40
2023-04-18T10:36:02.829Z,7.20
2023-04-18T10:41:22.348Z,8.10
2023-04-18T10:46:31.724Z,9.30
2023-04-18T10:51:33.700Z,9.40
2023-04-18T10:56:35.565Z,8.10
2023-04-18T11:01:38.137Z,8.10
2023-04-18T11:06:50.089Z,10.10
2023-04-18T11:12:08.419Z,8.50
2023-04-18T11:17:22.231Z,8.40
2023-04-18T11:22:23.815Z,10.00
2023-04-18T11:27:28.389Z,9.60
2023-04-18T11:32:30.065Z,10.70
2023-04-18T11:37:32.550Z,8.40
2023-04-18T11:42:35.159Z,8.10
2023-04-18T11:47:36.657Z,8.90
2023-04-18T11:52:41.187Z,8.40
2023-04-18T11:57:49.342Z,9.30
2023-04-18T12:02:51.400Z,10.20
2023-04-18T12:07:53.447Z,8.50
2023-04-18T12:12:58.709Z,11.70
2023-04-18T12:18:02.490Z,9.00
2023-04-18T12:23:04.193Z,9.30
2023-04-18T12:28:15.840Z,7.10
2023-04-18T12:33:17.336Z,9.80
2023-04-18T12:38:23.483Z,13.80
2023-04-18T12:43:25.750Z,7.60
2023-04-18T12:48:27.332Z,9.10
2023-04-18T12:53:28.896Z,11.30
2023-04-18T12:58:30.933Z,9.00
2023-04-18T13:03:33.862Z,11.30
2023-04-18T13:08:37.418Z,8.90
2023-04-18T13:13:38.974Z,10.90
2023-04-18T13:18:40.870Z,12.50
2023-04-18T13:23:42.376Z,11.00
2023-04-18T13:28:43.949Z,14.10
2023-04-18T13:33:45.424Z,11.50
2023-04-18T13:38:46.960Z,14.50
2023-04-18T13:43:48.473Z,11.80
2023-04-18T13:48:50.188Z,8.40
2023-04-18T13:53:52.240Z,9.80
2023-04-18T13:58:54.202Z,15.00
2023-04-18T14:03:55.940Z,10.20
2023-04-18T14:08:59.212Z,9.40
2023-04-18T14:14:02.099Z,7.10
2023-04-18T14:19:03.640Z,10.00
2023-04-18T14:24:06.225Z,11.60
2023-04-18T14:29:07.781Z,10.00
2023-04-18T14:34:09.853Z,10.80
2023-04-18T14:39:11.842Z,10.50
2023-04-18T14:44:13.678Z,8.50
2023-04-18T14:49:15.345Z,8.40
2023-04-18T14:54:17.096Z,8.60
2023-04-18T14:59:18.765Z,10.10
2023-04-18T15:04:21.244Z,7.80
2023-04-18T15:09:23.038Z,9.40
2023-04-18T15:14:24.765Z,10.30
2023-04-18T15:19:28.006Z,9.20
2023-04-18T15:24:29.689Z,7.90
2023-04-18T15:29:31.175Z,8.80
2023-04-18T15:34:33.226Z,6.40
2023-04-18T15:39:34.832Z,11.90
2023-04-18T15:44:36.394Z,6.30
2023-04-18T15:49:37.986Z,9.90
2023-04-18T15:54:42.917Z,10.00
2023-04-18T15:59:44.396Z,8.90
2023-04-18T16:04:46.460Z,9.20
2023-04-18T16:09:48.213Z,6.30
2023-04-18T16:14:49.705Z,5.80
2023-04-18T16:19:51.385Z,6.40
2023-04-18T16:24:52.952Z,10.90
2023-04-18T16:29:54.503Z,7.70
2023-04-18T16:34:56.034Z,7.20
2023-04-18T16:39:57.688Z,9.00
2023-04-18T16:45:01.784Z,9.30
2023-04-18T16:50:03.564Z,10.80
2023-04-18T16:55:06.704Z,7.20
2023-04-18T17:00:12.529Z,10.60
2023-04-18T17:05:14.103Z,10.70
2023-04-18T17:10:15.934Z,8.50
2023-04-18T17:15:19.712Z,27.30
2023-04-18T17:20:21.257Z,9.30
2023-04-18T17:25:22.758Z,9.10
2023-04-18T17:30:24.259Z,9.30
2023-04-18T17:35:25.930Z,9.90
2023-04-18T17:40:28.211Z,12.50
2023-04-18T17:45:29.982Z,11.50
2023-04-18T17:50:31.535Z,10.50
2023-04-18T17:55:33.076Z,11.60
2023-04-18T18:00:35.905Z,15.10
2023-04-18T18:05:37.455Z,11.00
2023-04-18T18:10:39.302Z,12.00
2023-04-18T18:15:40.796Z,10.50
2023-04-18T18:20:43.518Z,8.10
2023-04-18T18:25:45.077Z,8.90
2023-04-18T18:30:46.577Z,9.50
2023-04-18T18:35:48.085Z,10.10
2023-04-18T18:40:49.603Z,10.80
2023-04-18T18:45:51.220Z,12.30
2023-04-18T18:50:53.805Z,11.10
2023-04-18T18:55:55.521Z,10.50
2023-04-18T19:00:57.213Z,12.40
2023-04-18T19:05:58.789Z,12.80
2023-04-18T19:11:00.464Z,14.60
2023-04-18T19:16:02.044Z,11.60
2023-04-18T19:21:04.421Z,9.70
2023-04-18T19:26:05.946Z,12.20
2023-04-18T19:31:08.282Z,11.30
2023-04-18T19:36:09.883Z,10.60
2023-04-18T19:41:11.440Z,14.00
2023-04-18T19:46:13.021Z,13.60
2023-04-18T19:51:14.672Z,12.10
2023-04-18T19:56:16.742Z,9.20
2023-04-18T20:01:20.070Z,10.80
2023-04-18T20:11:23.503Z,9.50
2023-04-18T20:16:25.082Z,7.80
2023-04-18T20:21:27.340Z,14.40
2023-04-18T20:26:28.872Z,12.90
2023-04-18T20:31:30.427Z,12.60
2023-04-18T20:36:32.002Z,9.70
2023-04-18T20:41:34.772Z,12.20
2023-04-18T20:46:36.471Z,8.30
2023-04-18T20:51:38.376Z,11.00
2023-04-18T20:56:39.951Z,11.90
2023-04-18T21:01:42.058Z,7.80
2023-04-18T21:06:43.797Z,7.20
2023-04-18T21:11:45.531Z,8.10
2023-04-18T21:16:47.032Z,9.30
2023-04-18T21:21:48.560Z,9.40
2023-04-18T21:26:50.264Z,10.10
2023-04-18T21:31:52.466Z,9.20
2023-04-18T21:36:54.240Z,7.60
2023-04-18T21:41:55.707Z,7.20
2023-04-18T21:46:57.398Z,8.20
2023-04-18T21:51:59.035Z,8.60
2023-04-18T21:57:00.498Z,8.30
2023-04-18T22:02:05.564Z,6.40
2023-04-18T22:07:07.294Z,7.80
2023-04-18T22:12:08.845Z,5.60
2023-04-18T22:17:10.393Z,5.60
2023-04-18T22:22:11.931Z,8.40
2023-04-18T22:27:13.550Z,8.00
2023-04-18T22:32:15.026Z,6.20
2023-04-18T22:37:16.570Z,7.80
2023-04-18T22:42:18.112Z,9.10
2023-04-18T22:47:19.650Z,8.20
2023-04-18T22:52:24.764Z,6.60
2023-04-18T22:57:26.532Z,10.20
2023-04-18T23:02:28.257Z,7.80
2023-04-18T23:07:29.847Z,7.00
2023-04-18T23:12:31.651Z,7.10
2023-04-18T23:17:34.935Z,10.20
2023-04-18T23:22:38.527Z,5.40
2023-04-18T23:27:40.283Z,8.80
2023-04-18T23:32:42.035Z,6.30
2023-04-18T23:37:43.606Z,6.00
2023-04-18T23:42:45.169Z,7.50
2023-04-18T23:47:46.889Z,7.80
2023-04-18T23:52:48.491Z,8.90
2023-04-18T23:57:50.004Z,5.60
